Aeroporto :







RITROVATECI SU...

 
LOGIN :

Iscrizione | Disclaimer

   EN    FR    IT 

 









Sommario :    VFR   VFR Marginale   IFR   IFR Intensivo   IFR Molto Intensivo
Visibilità : 
Base nubi : 
>= 8 km
>= 3000ft
5 / 8 km
1000 / 3000 ft
1500m / 5 km
500 / 1000 ft
800 / 1500m
200 / 500 ft
< 800m
< 200 ft
Simboli :   Temporali  Nebbia  Neve Forte  Precipitazioni Forti  Vento > 20 kt






- Altitudine del aeroporto : 1825 ft


K8B0 - Steven A. Bean Municipal

ULTIMO METAR :
  • 230115Z AUTO 31021G33KT 7SM OVC026 M03/M07 A2952 RMK AO2

METARs OBSOLETI :
  • 230055Z AUTO 30017G25KT 260V330 5SM -SN OVC026 M03/M06 A2952 RMK AO2
  • 230035Z AUTO 31014G24KT 7SM -SN OVC023 M03/M06 A2951 RMK AO2
  • 222355Z AUTO 32012G21KT 10SM OVC019 M02/M05 A2949 RMK AO2
  • 222335Z AUTO 30017G26KT 270V330 10SM OVC019 M02/M05 A2947 RMK AO2
  • 222315Z AUTO 31018G25KT 7SM UP BKN017 OVC022 M02/M04 A2946 RMK AO2
  • 222255Z AUTO 32024G35KT 7SM UP BKN017 OVC022 M01/M03 A2945 RMK AO2
  • 222235Z AUTO 32020G31KT 10SM BKN017 OVC022 M01/M03 A2943 RMK AO2

TAF N/A



MetMap, La meteo Aeronautica in un colpo d'occhio ! - Copyright ORBIFLY Dicembre 2007 - Disclaimer

ORBIFLY MET'MAP TEAM :

Programmazione e sviluppo : Alexandra Zaïnal
Concezione e sviluppo : Baudouin d'Aumeries
Co-Programmazione e sviluppo : Marc-Olivier Méhu
Supporto tecnico e logistico : Manuel Goepfert
Aiuto per la traduzione : Arnaldo La Scala

Contatto : metmap@orbifly.com




FONTI E CREDITI :

   NOAA